sensor_id;sensor_type;location;lat;lon;timestamp;temperature;humidity
32536;DHT22;18974;50.838;4.636;2024-03-06T00:00:48;7.30;99.90
32536;DHT22;18974;50.838;4.636;2024-03-06T00:03:16;7.40;99.90
32536;DHT22;18974;50.838;4.636;2024-03-06T00:05:41;7.40;99.90
32536;DHT22;18974;50.838;4.636;2024-03-06T00:08:07;7.40;99.90
32536;DHT22;18974;50.838;4.636;2024-03-06T00:10:32;7.50;99.90
32536;DHT22;18974;50.838;4.636;2024-03-06T00:12:58;7.50;99.90
32536;DHT22;18974;50.838;4.636;2024-03-06T00:15:24;7.50;99.90
32536;DHT22;18974;50.838;4.636;2024-03-06T00:17:49;7.40;99.90
32536;DHT22;18974;50.838;4.636;2024-03-06T00:20:15;7.40;99.90
32536;DHT22;18974;50.838;4.636;2024-03-06T00:22:41;7.40;99.90
32536;DHT22;18974;50.838;4.636;2024-03-06T00:25:07;7.40;99.90
32536;DHT22;18974;50.838;4.636;2024-03-06T00:27:33;7.40;99.90
32536;DHT22;18974;50.838;4.636;2024-03-06T00:29:59;7.50;99.90
32536;DHT22;18974;50.838;4.636;2024-03-06T00:32:25;7.40;99.90
32536;DHT22;18974;50.838;4.636;2024-03-06T00:34:50;7.50;99.90
32536;DHT22;18974;50.838;4.636;2024-03-06T00:37:16;7.50;99.90
32536;DHT22;18974;50.838;4.636;2024-03-06T00:39:43;7.40;99.90
32536;DHT22;18974;50.838;4.636;2024-03-06T00:42:08;7.40;99.90
32536;DHT22;18974;50.838;4.636;2024-03-06T00:44:35;7.40;99.90
32536;DHT22;18974;50.838;4.636;2024-03-06T00:47:01;7.40;99.90
32536;DHT22;18974;50.838;4.636;2024-03-06T00:49:27;7.50;99.90
32536;DHT22;18974;50.838;4.636;2024-03-06T00:51:53;7.40;99.90
32536;DHT22;18974;50.838;4.636;2024-03-06T00:54:19;7.40;99.90
32536;DHT22;18974;50.838;4.636;2024-03-06T00:56:44;7.30;99.90
32536;DHT22;18974;50.838;4.636;2024-03-06T00:59:10;7.40;99.90
32536;DHT22;18974;50.838;4.636;2024-03-06T01:01:36;7.40;99.90
32536;DHT22;18974;50.838;4.636;2024-03-06T01:04:01;7.40;99.90
32536;DHT22;18974;50.838;4.636;2024-03-06T01:06:27;7.40;99.90
32536;DHT22;18974;50.838;4.636;2024-03-06T01:08:53;7.30;99.90
32536;DHT22;18974;50.838;4.636;2024-03-06T01:11:20;7.20;99.90
32536;DHT22;18974;50.838;4.636;2024-03-06T01:13:45;7.20;99.90
32536;DHT22;18974;50.838;4.636;2024-03-06T01:16:11;7.20;99.90
32536;DHT22;18974;50.838;4.636;2024-03-06T01:18:37;7.10;99.90
32536;DHT22;18974;50.838;4.636;2024-03-06T01:21:02;7.10;99.90
32536;DHT22;18974;50.838;4.636;2024-03-06T01:23:29;7.00;99.90
32536;DHT22;18974;50.838;4.636;2024-03-06T01:25:54;7.00;99.90
32536;DHT22;18974;50.838;4.636;2024-03-06T01:28:20;6.90;99.90
32536;DHT22;18974;50.838;4.636;2024-03-06T01:30:46;6.80;99.90
32536;DHT22;18974;50.838;4.636;2024-03-06T01:33:11;6.90;99.90
32536;DHT22;18974;50.838;4.636;2024-03-06T01:35:37;6.80;99.90
32536;DHT22;18974;50.838;4.636;2024-03-06T01:38:03;6.70;99.90
32536;DHT22;18974;50.838;4.636;2024-03-06T01:40:28;6.70;99.90
32536;DHT22;18974;50.838;4.636;2024-03-06T01:42:55;6.60;99.90
32536;DHT22;18974;50.838;4.636;2024-03-06T01:45:21;6.60;99.90
32536;DHT22;18974;50.838;4.636;2024-03-06T01:47:46;6.60;99.90
32536;DHT22;18974;50.838;4.636;2024-03-06T01:50:12;6.50;99.90
32536;DHT22;18974;50.838;4.636;2024-03-06T01:52:39;6.60;99.90
32536;DHT22;18974;50.838;4.636;2024-03-06T01:55:07;6.50;99.90
32536;DHT22;18974;50.838;4.636;2024-03-06T01:57:34;6.50;99.90
32536;DHT22;18974;50.838;4.636;2024-03-06T02:00:01;6.50;99.90
32536;DHT22;18974;50.838;4.636;2024-03-06T02:02:28;6.50;99.90
32536;DHT22;18974;50.838;4.636;2024-03-06T02:04:55;6.50;99.90
32536;DHT22;18974;50.838;4.636;2024-03-06T02:07:23;6.50;99.90
32536;DHT22;18974;50.838;4.636;2024-03-06T02:09:49;6.50;99.90
32536;DHT22;18974;50.838;4.636;2024-03-06T02:12:15;6.50;99.90
32536;DHT22;18974;50.838;4.636;2024-03-06T02:14:41;6.40;99.90
32536;DHT22;18974;50.838;4.636;2024-03-06T02:17:07;6.40;99.90
32536;DHT22;18974;50.838;4.636;2024-03-06T02:19:40;6.40;99.90
32536;DHT22;18974;50.838;4.636;2024-03-06T02:22:07;6.30;99.90
32536;DHT22;18974;50.838;4.636;2024-03-06T02:24:33;6.20;99.90
32536;DHT22;18974;50.838;4.636;2024-03-06T02:26:58;6.20;99.90
32536;DHT22;18974;50.838;4.636;2024-03-06T02:29:24;6.10;99.90
32536;DHT22;18974;50.838;4.636;2024-03-06T02:31:50;6.00;99.90
32536;DHT22;18974;50.838;4.636;2024-03-06T02:34:15;6.00;99.90
32536;DHT22;18974;50.838;4.636;2024-03-06T02:36:41;6.00;99.90
32536;DHT22;18974;50.838;4.636;2024-03-06T02:39:07;5.80;99.90
32536;DHT22;18974;50.838;4.636;2024-03-06T02:41:35;5.50;99.90
32536;DHT22;18974;50.838;4.636;2024-03-06T02:44:01;5.50;99.90
32536;DHT22;18974;50.838;4.636;2024-03-06T02:46:28;5.60;99.90
32536;DHT22;18974;50.838;4.636;2024-03-06T02:48:53;5.60;99.90
32536;DHT22;18974;50.838;4.636;2024-03-06T02:51:20;5.50;99.90
32536;DHT22;18974;50.838;4.636;2024-03-06T02:53:46;5.50;99.90
32536;DHT22;18974;50.838;4.636;2024-03-06T02:56:20;5.50;99.90
32536;DHT22;18974;50.838;4.636;2024-03-06T02:58:46;5.50;99.90
32536;DHT22;18974;50.838;4.636;2024-03-06T03:01:13;5.60;99.90
32536;DHT22;18974;50.838;4.636;2024-03-06T03:03:42;5.60;99.90
32536;DHT22;18974;50.838;4.636;2024-03-06T03:06:09;5.50;99.90
32536;DHT22;18974;50.838;4.636;2024-03-06T03:08:37;5.50;99.90
32536;DHT22;18974;50.838;4.636;2024-03-06T03:11:02;5.60;99.90
32536;DHT22;18974;50.838;4.636;2024-03-06T03:13:28;5.50;99.90
32536;DHT22;18974;50.838;4.636;2024-03-06T03:15:54;5.50;99.90
32536;DHT22;18974;50.838;4.636;2024-03-06T03:18:19;5.60;99.90
32536;DHT22;18974;50.838;4.636;2024-03-06T03:20:45;5.50;99.90
32536;DHT22;18974;50.838;4.636;2024-03-06T03:23:11;5.60;99.90
32536;DHT22;18974;50.838;4.636;2024-03-06T03:25:39;5.50;99.90
32536;DHT22;18974;50.838;4.636;2024-03-06T03:28:05;5.50;99.90
32536;DHT22;18974;50.838;4.636;2024-03-06T03:30:31;5.60;99.90
32536;DHT22;18974;50.838;4.636;2024-03-06T03:32:57;5.50;99.90
32536;DHT22;18974;50.838;4.636;2024-03-06T03:35:23;5.50;99.90
32536;DHT22;18974;50.838;4.636;2024-03-06T03:37:54;5.50;99.90
32536;DHT22;18974;50.838;4.636;2024-03-06T03:40:21;5.40;99.90
32536;DHT22;18974;50.838;4.636;2024-03-06T03:42:47;5.40;99.90
32536;DHT22;18974;50.838;4.636;2024-03-06T03:45:13;5.40;99.90
32536;DHT22;18974;50.838;4.636;2024-03-06T03:47:39;5.40;99.90
32536;DHT22;18974;50.838;4.636;2024-03-06T03:50:05;5.30;99.90
32536;DHT22;18974;50.838;4.636;2024-03-06T03:52:31;5.30;99.90
32536;DHT22;18974;50.838;4.636;2024-03-06T03:54:56;5.30;99.90
32536;DHT22;18974;50.838;4.636;2024-03-06T03:57:22;5.30;99.90
32536;DHT22;18974;50.838;4.636;2024-03-06T03:59:48;5.30;99.90
32536;DHT22;18974;50.838;4.636;2024-03-06T04:02:13;5.20;99.90
32536;DHT22;18974;50.838;4.636;2024-03-06T04:04:39;5.20;99.90
32536;DHT22;18974;50.838;4.636;2024-03-06T04:07:05;5.20;99.90
32536;DHT22;18974;50.838;4.636;2024-03-06T04:09:32;5.10;99.90
32536;DHT22;18974;50.838;4.636;2024-03-06T04:12:04;5.00;99.90
32536;DHT22;18974;50.838;4.636;2024-03-06T04:14:30;5.10;99.90
32536;DHT22;18974;50.838;4.636;2024-03-06T04:16:56;5.00;99.90
32536;DHT22;18974;50.838;4.636;2024-03-06T04:19:21;4.90;99.90
32536;DHT22;18974;50.838;4.636;2024-03-06T04:21:47;4.90;99.90
32536;DHT22;18974;50.838;4.636;2024-03-06T04:24:13;4.70;99.90
32536;DHT22;18974;50.838;4.636;2024-03-06T04:26:38;4.70;99.90
32536;DHT22;18974;50.838;4.636;2024-03-06T04:29:04;4.80;99.90
32536;DHT22;18974;50.838;4.636;2024-03-06T04:31:30;4.70;99.90
32536;DHT22;18974;50.838;4.636;2024-03-06T04:33:55;4.70;99.90
32536;DHT22;18974;50.838;4.636;2024-03-06T04:36:21;4.60;99.90
32536;DHT22;18974;50.838;4.636;2024-03-06T04:38:46;4.60;99.90
32536;DHT22;18974;50.838;4.636;2024-03-06T04:41:12;4.60;99.90
32536;DHT22;18974;50.838;4.636;2024-03-06T04:43:38;4.50;99.90
32536;DHT22;18974;50.838;4.636;2024-03-06T04:46:04;4.60;99.90
32536;DHT22;18974;50.838;4.636;2024-03-06T04:48:30;4.60;99.90
32536;DHT22;18974;50.838;4.636;2024-03-06T04:50:55;4.60;99.90
32536;DHT22;18974;50.838;4.636;2024-03-06T04:53:21;4.60;99.90
32536;DHT22;18974;50.838;4.636;2024-03-06T04:55:47;4.50;99.90
32536;DHT22;18974;50.838;4.636;2024-03-06T04:58:12;4.50;99.90
32536;DHT22;18974;50.838;4.636;2024-03-06T05:00:38;4.30;99.90
32536;DHT22;18974;50.838;4.636;2024-03-06T05:03:04;4.30;99.90
32536;DHT22;18974;50.838;4.636;2024-03-06T05:05:30;4.30;99.90
32536;DHT22;18974;50.838;4.636;2024-03-06T05:07:56;4.40;99.90
32536;DHT22;18974;50.838;4.636;2024-03-06T05:10:22;4.40;99.90
32536;DHT22;18974;50.838;4.636;2024-03-06T05:12:47;4.40;99.90
32536;DHT22;18974;50.838;4.636;2024-03-06T05:15:14;4.40;99.90
32536;DHT22;18974;50.838;4.636;2024-03-06T05:17:39;4.30;99.90
32536;DHT22;18974;50.838;4.636;2024-03-06T05:20:06;4.30;99.90
32536;DHT22;18974;50.838;4.636;2024-03-06T05:22:32;4.30;99.90
32536;DHT22;18974;50.838;4.636;2024-03-06T05:24:57;4.30;99.90
32536;DHT22;18974;50.838;4.636;2024-03-06T05:27:24;4.20;99.90
32536;DHT22;18974;50.838;4.636;2024-03-06T05:29:50;4.30;99.90
32536;DHT22;18974;50.838;4.636;2024-03-06T05:32:15;4.30;99.90
32536;DHT22;18974;50.838;4.636;2024-03-06T05:34:41;4.30;99.90
32536;DHT22;18974;50.838;4.636;2024-03-06T05:37:07;4.20;99.90
32536;DHT22;18974;50.838;4.636;2024-03-06T05:39:33;4.30;99.90
32536;DHT22;18974;50.838;4.636;2024-03-06T05:42:03;4.30;99.90
32536;DHT22;18974;50.838;4.636;2024-03-06T05:44:33;4.20;99.90
32536;DHT22;18974;50.838;4.636;2024-03-06T05:46:59;4.10;99.90
32536;DHT22;18974;50.838;4.636;2024-03-06T05:49:26;4.10;99.90
32536;DHT22;18974;50.838;4.636;2024-03-06T05:51:52;4.10;99.90
32536;DHT22;18974;50.838;4.636;2024-03-06T05:54:21;4.10;99.90
32536;DHT22;18974;50.838;4.636;2024-03-06T05:56:51;4.10;99.90
32536;DHT22;18974;50.838;4.636;2024-03-06T05:59:17;4.20;99.90
32536;DHT22;18974;50.838;4.636;2024-03-06T06:01:43;4.20;99.90
32536;DHT22;18974;50.838;4.636;2024-03-06T06:04:10;4.20;99.90
32536;DHT22;18974;50.838;4.636;2024-03-06T06:06:36;4.10;99.90
32536;DHT22;18974;50.838;4.636;2024-03-06T06:09:02;4.10;99.90
32536;DHT22;18974;50.838;4.636;2024-03-06T06:11:31;4.00;99.90
32536;DHT22;18974;50.838;4.636;2024-03-06T06:13:56;4.10;99.90
32536;DHT22;18974;50.838;4.636;2024-03-06T06:16:22;4.10;99.90
32536;DHT22;18974;50.838;4.636;2024-03-06T06:18:48;4.10;99.90
32536;DHT22;18974;50.838;4.636;2024-03-06T06:21:13;4.20;99.90
32536;DHT22;18974;50.838;4.636;2024-03-06T06:23:39;4.10;99.90
32536;DHT22;18974;50.838;4.636;2024-03-06T06:26:05;4.10;99.90
32536;DHT22;18974;50.838;4.636;2024-03-06T06:28:30;4.10;99.90
32536;DHT22;18974;50.838;4.636;2024-03-06T06:30:56;4.10;99.90
32536;DHT22;18974;50.838;4.636;2024-03-06T06:33:22;4.10;99.90
32536;DHT22;18974;50.838;4.636;2024-03-06T06:35:48;4.10;99.90
32536;DHT22;18974;50.838;4.636;2024-03-06T06:38:13;4.20;99.90
32536;DHT22;18974;50.838;4.636;2024-03-06T06:40:39;4.10;99.90
32536;DHT22;18974;50.838;4.636;2024-03-06T06:43:06;4.30;99.90
32536;DHT22;18974;50.838;4.636;2024-03-06T06:45:32;4.30;99.90
32536;DHT22;18974;50.838;4.636;2024-03-06T06:47:57;4.30;99.90
32536;DHT22;18974;50.838;4.636;2024-03-06T06:50:23;4.20;99.90
32536;DHT22;18974;50.838;4.636;2024-03-06T06:52:51;4.30;99.90
32536;DHT22;18974;50.838;4.636;2024-03-06T06:55:17;4.30;99.90
32536;DHT22;18974;50.838;4.636;2024-03-06T06:57:43;4.20;99.90
32536;DHT22;18974;50.838;4.636;2024-03-06T07:00:10;4.30;99.90
32536;DHT22;18974;50.838;4.636;2024-03-06T07:02:39;4.20;99.90
32536;DHT22;18974;50.838;4.636;2024-03-06T07:05:06;4.40;99.90
32536;DHT22;18974;50.838;4.636;2024-03-06T07:07:33;4.40;99.90
32536;DHT22;18974;50.838;4.636;2024-03-06T07:09:59;4.50;99.90
32536;DHT22;18974;50.838;4.636;2024-03-06T07:12:25;4.40;99.90
32536;DHT22;18974;50.838;4.636;2024-03-06T07:14:50;4.50;99.90
32536;DHT22;18974;50.838;4.636;2024-03-06T07:17:16;4.50;99.90
32536;DHT22;18974;50.838;4.636;2024-03-06T07:19:42;4.60;99.90
32536;DHT22;18974;50.838;4.636;2024-03-06T07:22:07;4.60;99.90
32536;DHT22;18974;50.838;4.636;2024-03-06T07:24:34;4.80;99.90
32536;DHT22;18974;50.838;4.636;2024-03-06T07:26:59;4.90;99.90
32536;DHT22;18974;50.838;4.636;2024-03-06T07:29:27;4.90;99.90
32536;DHT22;18974;50.838;4.636;2024-03-06T07:31:52;5.00;99.90
32536;DHT22;18974;50.838;4.636;2024-03-06T07:34:19;5.00;99.90
32536;DHT22;18974;50.838;4.636;2024-03-06T07:36:47;5.00;99.90
32536;DHT22;18974;50.838;4.636;2024-03-06T07:39:15;5.00;99.90
32536;DHT22;18974;50.838;4.636;2024-03-06T07:41:41;5.00;99.90
32536;DHT22;18974;50.838;4.636;2024-03-06T07:44:07;5.20;99.90
32536;DHT22;18974;50.838;4.636;2024-03-06T07:46:33;5.20;99.90
32536;DHT22;18974;50.838;4.636;2024-03-06T07:48:59;5.30;99.90
32536;DHT22;18974;50.838;4.636;2024-03-06T07:51:25;5.40;99.90
32536;DHT22;18974;50.838;4.636;2024-03-06T07:53:50;5.50;99.90
32536;DHT22;18974;50.838;4.636;2024-03-06T07:56:16;5.50;99.90
32536;DHT22;18974;50.838;4.636;2024-03-06T07:58:42;5.60;99.90
32536;DHT22;18974;50.838;4.636;2024-03-06T08:01:08;5.70;99.90
32536;DHT22;18974;50.838;4.636;2024-03-06T08:03:33;5.90;99.90
32536;DHT22;18974;50.838;4.636;2024-03-06T08:05:59;5.90;99.90
32536;DHT22;18974;50.838;4.636;2024-03-06T08:08:25;6.00;99.90
32536;DHT22;18974;50.838;4.636;2024-03-06T08:10:51;6.20;99.90
32536;DHT22;18974;50.838;4.636;2024-03-06T08:13:17;6.20;99.90
32536;DHT22;18974;50.838;4.636;2024-03-06T08:15:44;6.40;99.90
32536;DHT22;18974;50.838;4.636;2024-03-06T08:18:10;6.50;99.90
32536;DHT22;18974;50.838;4.636;2024-03-06T08:20:36;6.60;99.90
32536;DHT22;18974;50.838;4.636;2024-03-06T08:23:03;6.60;99.90
32536;DHT22;18974;50.838;4.636;2024-03-06T08:25:28;6.80;99.90
32536;DHT22;18974;50.838;4.636;2024-03-06T08:27:54;6.90;99.90
32536;DHT22;18974;50.838;4.636;2024-03-06T08:30:20;7.00;99.90
32536;DHT22;18974;50.838;4.636;2024-03-06T08:32:45;7.20;99.90
32536;DHT22;18974;50.838;4.636;2024-03-06T08:35:12;7.30;99.90
32536;DHT22;18974;50.838;4.636;2024-03-06T08:37:41;7.40;99.90
32536;DHT22;18974;50.838;4.636;2024-03-06T08:40:08;7.60;99.90
32536;DHT22;18974;50.838;4.636;2024-03-06T08:42:48;7.70;99.90
32536;DHT22;18974;50.838;4.636;2024-03-06T08:45:15;7.80;99.90
32536;DHT22;18974;50.838;4.636;2024-03-06T08:47:44;7.90;99.90
32536;DHT22;18974;50.838;4.636;2024-03-06T08:50:10;8.10;99.90
32536;DHT22;18974;50.838;4.636;2024-03-06T08:52:37;8.20;99.90
32536;DHT22;18974;50.838;4.636;2024-03-06T08:55:03;8.30;99.90
32536;DHT22;18974;50.838;4.636;2024-03-06T08:57:36;8.40;99.90
32536;DHT22;18974;50.838;4.636;2024-03-06T09:00:03;8.50;99.90
32536;DHT22;18974;50.838;4.636;2024-03-06T09:02:29;8.70;99.90
32536;DHT22;18974;50.838;4.636;2024-03-06T09:04:55;8.80;99.90
32536;DHT22;18974;50.838;4.636;2024-03-06T09:07:21;8.90;99.90
32536;DHT22;18974;50.838;4.636;2024-03-06T09:09:50;9.10;99.90
32536;DHT22;18974;50.838;4.636;2024-03-06T09:12:17;9.20;99.90
32536;DHT22;18974;50.838;4.636;2024-03-06T09:14:43;9.30;99.90
32536;DHT22;18974;50.838;4.636;2024-03-06T09:17:10;9.40;99.90
32536;DHT22;18974;50.838;4.636;2024-03-06T09:19:38;9.60;99.90
32536;DHT22;18974;50.838;4.636;2024-03-06T09:22:04;9.80;99.90
32536;DHT22;18974;50.838;4.636;2024-03-06T09:24:30;9.80;99.90
32536;DHT22;18974;50.838;4.636;2024-03-06T09:26:55;10.00;99.90
32536;DHT22;18974;50.838;4.636;2024-03-06T09:29:21;10.00;99.90
32536;DHT22;18974;50.838;4.636;2024-03-06T09:31:47;10.10;99.90
32536;DHT22;18974;50.838;4.636;2024-03-06T09:34:14;10.20;99.90
32536;DHT22;18974;50.838;4.636;2024-03-06T09:36:49;10.30;99.90
32536;DHT22;18974;50.838;4.636;2024-03-06T09:39:17;10.40;99.90
32536;DHT22;18974;50.838;4.636;2024-03-06T09:41:53;10.50;99.90
32536;DHT22;18974;50.838;4.636;2024-03-06T09:44:20;10.70;99.90
32536;DHT22;18974;50.838;4.636;2024-03-06T09:46:47;10.80;99.90
32536;DHT22;18974;50.838;4.636;2024-03-06T09:49:15;10.80;99.90
32536;DHT22;18974;50.838;4.636;2024-03-06T09:51:45;10.70;99.90
32536;DHT22;18974;50.838;4.636;2024-03-06T09:54:15;10.70;99.90
32536;DHT22;18974;50.838;4.636;2024-03-06T09:56:45;10.90;99.90
32536;DHT22;18974;50.838;4.636;2024-03-06T09:59:11;11.10;99.90
32536;DHT22;18974;50.838;4.636;2024-03-06T10:01:57;11.20;99.90
32536;DHT22;18974;50.838;4.636;2024-03-06T10:04:24;11.40;99.90
32536;DHT22;18974;50.838;4.636;2024-03-06T10:06:57;11.50;99.90
32536;DHT22;18974;50.838;4.636;2024-03-06T10:09:24;11.70;99.90
32536;DHT22;18974;50.838;4.636;2024-03-06T10:11:50;11.80;99.90
32536;DHT22;18974;50.838;4.636;2024-03-06T10:14:18;11.90;99.90
32536;DHT22;18974;50.838;4.636;2024-03-06T10:16:57;12.10;99.90
32536;DHT22;18974;50.838;4.636;2024-03-06T10:19:25;12.20;99.90
32536;DHT22;18974;50.838;4.636;2024-03-06T10:21:53;12.30;99.90
32536;DHT22;18974;50.838;4.636;2024-03-06T10:24:25;12.30;99.90
32536;DHT22;18974;50.838;4.636;2024-03-06T10:26:52;12.40;99.90
32536;DHT22;18974;50.838;4.636;2024-03-06T10:29:20;12.30;99.90
32536;DHT22;18974;50.838;4.636;2024-03-06T10:31:54;12.40;99.90
32536;DHT22;18974;50.838;4.636;2024-03-06T10:34:21;12.60;99.90
32536;DHT22;18974;50.838;4.636;2024-03-06T10:36:53;12.70;99.90
32536;DHT22;18974;50.838;4.636;2024-03-06T10:39:20;12.70;99.90
32536;DHT22;18974;50.838;4.636;2024-03-06T10:41:46;12.80;99.90
32536;DHT22;18974;50.838;4.636;2024-03-06T10:44:17;12.80;99.90
32536;DHT22;18974;50.838;4.636;2024-03-06T10:46:46;12.80;99.90
32536;DHT22;18974;50.838;4.636;2024-03-06T10:49:14;12.90;99.90
32536;DHT22;18974;50.838;4.636;2024-03-06T10:51:42;13.00;99.90
32536;DHT22;18974;50.838;4.636;2024-03-06T10:54:09;13.10;99.90
32536;DHT22;18974;50.838;4.636;2024-03-06T10:56:40;13.20;99.90
32536;DHT22;18974;50.838;4.636;2024-03-06T10:59:10;13.40;99.90
32536;DHT22;18974;50.838;4.636;2024-03-06T11:01:37;13.40;99.90
32536;DHT22;18974;50.838;4.636;2024-03-06T11:04:05;13.30;99.90
32536;DHT22;18974;50.838;4.636;2024-03-06T11:06:31;13.10;99.90
32536;DHT22;18974;50.838;4.636;2024-03-06T11:08:59;13.20;99.90
32536;DHT22;18974;50.838;4.636;2024-03-06T11:11:25;13.10;99.90
32536;DHT22;18974;50.838;4.636;2024-03-06T11:13:54;12.80;99.90
32536;DHT22;18974;50.838;4.636;2024-03-06T11:16:27;12.50;99.90
32536;DHT22;18974;50.838;4.636;2024-03-06T11:19:05;12.50;99.90
32536;DHT22;18974;50.838;4.636;2024-03-06T11:21:31;12.50;99.90
32536;DHT22;18974;50.838;4.636;2024-03-06T11:24:22;12.80;99.90
32536;DHT22;18974;50.838;4.636;2024-03-06T11:27:00;13.10;99.90
32536;DHT22;18974;50.838;4.636;2024-03-06T11:32:37;13.90;99.90
32536;DHT22;18974;50.838;4.636;2024-03-06T11:35:04;14.20;99.90
32536;DHT22;18974;50.838;4.636;2024-03-06T11:37:33;14.30;99.90
32536;DHT22;18974;50.838;4.636;2024-03-06T11:40:00;14.40;99.90
32536;DHT22;18974;50.838;4.636;2024-03-06T11:42:34;14.60;99.90
32536;DHT22;18974;50.838;4.636;2024-03-06T11:45:13;14.90;99.90
32536;DHT22;18974;50.838;4.636;2024-03-06T11:48:03;15.00;99.90
32536;DHT22;18974;50.838;4.636;2024-03-06T11:50:29;15.10;99.90
32536;DHT22;18974;50.838;4.636;2024-03-06T11:52:58;15.20;99.90
32536;DHT22;18974;50.838;4.636;2024-03-06T11:55:24;15.20;99.90
32536;DHT22;18974;50.838;4.636;2024-03-06T11:57:52;15.00;99.90
32536;DHT22;18974;50.838;4.636;2024-03-06T12:00:22;14.70;99.90
32536;DHT22;18974;50.838;4.636;2024-03-06T12:02:48;14.60;99.90
32536;DHT22;18974;50.838;4.636;2024-03-06T12:05:15;14.70;99.90
32536;DHT22;18974;50.838;4.636;2024-03-06T12:07:48;14.60;99.90
32536;DHT22;18974;50.838;4.636;2024-03-06T12:10:15;14.70;99.90
32536;DHT22;18974;50.838;4.636;2024-03-06T12:12:41;14.70;99.90
32536;DHT22;18974;50.838;4.636;2024-03-06T12:15:09;14.50;99.90
32536;DHT22;18974;50.838;4.636;2024-03-06T12:17:49;14.50;99.90
32536;DHT22;18974;50.838;4.636;2024-03-06T12:20:16;14.60;99.90
32536;DHT22;18974;50.838;4.636;2024-03-06T12:25:18;14.70;99.90
32536;DHT22;18974;50.838;4.636;2024-03-06T12:27:45;14.60;99.90
32536;DHT22;18974;50.838;4.636;2024-03-06T12:30:11;14.50;99.90
32536;DHT22;18974;50.838;4.636;2024-03-06T12:32:39;14.50;99.90
32536;DHT22;18974;50.838;4.636;2024-03-06T12:35:05;14.50;99.90
32536;DHT22;18974;50.838;4.636;2024-03-06T12:37:32;14.40;99.90
32536;DHT22;18974;50.838;4.636;2024-03-06T12:39:57;14.40;99.90
32536;DHT22;18974;50.838;4.636;2024-03-06T12:42:23;14.20;99.90
32536;DHT22;18974;50.838;4.636;2024-03-06T12:44:50;14.20;99.90
32536;DHT22;18974;50.838;4.636;2024-03-06T12:47:16;14.20;99.90
32536;DHT22;18974;50.838;4.636;2024-03-06T12:49:41;14.10;99.90
32536;DHT22;18974;50.838;4.636;2024-03-06T12:52:07;14.10;99.90
32536;DHT22;18974;50.838;4.636;2024-03-06T12:54:34;14.10;99.90
32536;DHT22;18974;50.838;4.636;2024-03-06T12:57:00;14.00;99.90
32536;DHT22;18974;50.838;4.636;2024-03-06T12:59:25;14.00;99.90
32536;DHT22;18974;50.838;4.636;2024-03-06T13:01:51;14.10;99.90
32536;DHT22;18974;50.838;4.636;2024-03-06T13:04:17;14.30;99.90
32536;DHT22;18974;50.838;4.636;2024-03-06T13:06:43;14.30;99.90
32536;DHT22;18974;50.838;4.636;2024-03-06T13:09:10;14.30;99.90
32536;DHT22;18974;50.838;4.636;2024-03-06T13:11:36;14.40;99.90
32536;DHT22;18974;50.838;4.636;2024-03-06T13:14:02;14.50;99.90
32536;DHT22;18974;50.838;4.636;2024-03-06T13:16:27;14.50;99.90
32536;DHT22;18974;50.838;4.636;2024-03-06T13:18:54;14.50;99.90
32536;DHT22;18974;50.838;4.636;2024-03-06T13:21:22;14.60;99.90
32536;DHT22;18974;50.838;4.636;2024-03-06T13:23:48;14.60;99.90
32536;DHT22;18974;50.838;4.636;2024-03-06T13:26:14;14.60;99.90
32536;DHT22;18974;50.838;4.636;2024-03-06T13:28:40;14.60;99.90
32536;DHT22;18974;50.838;4.636;2024-03-06T13:31:06;14.60;99.90
32536;DHT22;18974;50.838;4.636;2024-03-06T13:33:34;14.50;99.90
32536;DHT22;18974;50.838;4.636;2024-03-06T13:36:00;14.60;99.90
32536;DHT22;18974;50.838;4.636;2024-03-06T13:38:26;14.70;99.90
32536;DHT22;18974;50.838;4.636;2024-03-06T13:40:51;14.70;99.90
32536;DHT22;18974;50.838;4.636;2024-03-06T13:43:17;14.90;99.90
32536;DHT22;18974;50.838;4.636;2024-03-06T13:45:52;15.00;99.90
32536;DHT22;18974;50.838;4.636;2024-03-06T13:48:18;15.10;99.90
32536;DHT22;18974;50.838;4.636;2024-03-06T13:50:44;15.10;99.90
32536;DHT22;18974;50.838;4.636;2024-03-06T13:53:11;14.90;99.90
32536;DHT22;18974;50.838;4.636;2024-03-06T13:55:37;15.00;99.90
32536;DHT22;18974;50.838;4.636;2024-03-06T13:58:03;15.20;99.90
32536;DHT22;18974;50.838;4.636;2024-03-06T14:00:29;15.60;99.90
32536;DHT22;18974;50.838;4.636;2024-03-06T14:02:55;15.70;99.90
32536;DHT22;18974;50.838;4.636;2024-03-06T14:05:20;15.70;99.90
32536;DHT22;18974;50.838;4.636;2024-03-06T14:07:52;15.60;99.90
32536;DHT22;18974;50.838;4.636;2024-03-06T14:10:18;15.40;99.90
32536;DHT22;18974;50.838;4.636;2024-03-06T14:12:45;15.40;99.90
32536;DHT22;18974;50.838;4.636;2024-03-06T14:15:11;15.40;99.90
32536;DHT22;18974;50.838;4.636;2024-03-06T14:17:41;15.40;99.90
32536;DHT22;18974;50.838;4.636;2024-03-06T14:20:08;15.20;99.90
32536;DHT22;18974;50.838;4.636;2024-03-06T14:22:33;14.90;99.90
32536;DHT22;18974;50.838;4.636;2024-03-06T14:24:59;14.80;99.90
32536;DHT22;18974;50.838;4.636;2024-03-06T14:27:25;14.70;99.90
32536;DHT22;18974;50.838;4.636;2024-03-06T14:29:50;14.60;99.90
32536;DHT22;18974;50.838;4.636;2024-03-06T14:32:18;14.50;99.90
32536;DHT22;18974;50.838;4.636;2024-03-06T14:34:44;14.50;99.90
32536;DHT22;18974;50.838;4.636;2024-03-06T14:37:10;14.40;99.90
32536;DHT22;18974;50.838;4.636;2024-03-06T14:39:36;14.40;99.90
32536;DHT22;18974;50.838;4.636;2024-03-06T14:42:02;14.40;99.90
32536;DHT22;18974;50.838;4.636;2024-03-06T14:44:29;14.40;99.90
32536;DHT22;18974;50.838;4.636;2024-03-06T14:46:56;14.30;99.90
32536;DHT22;18974;50.838;4.636;2024-03-06T14:49:22;14.40;99.90
32536;DHT22;18974;50.838;4.636;2024-03-06T14:51:47;14.50;99.90
32536;DHT22;18974;50.838;4.636;2024-03-06T14:54:13;14.70;99.90
32536;DHT22;18974;50.838;4.636;2024-03-06T14:56:39;14.70;99.90
32536;DHT22;18974;50.838;4.636;2024-03-06T14:59:06;14.70;99.90
32536;DHT22;18974;50.838;4.636;2024-03-06T15:01:32;14.60;99.90
32536;DHT22;18974;50.838;4.636;2024-03-06T15:03:58;14.50;99.90
32536;DHT22;18974;50.838;4.636;2024-03-06T15:06:24;14.50;99.90
32536;DHT22;18974;50.838;4.636;2024-03-06T15:08:50;14.60;99.90
32536;DHT22;18974;50.838;4.636;2024-03-06T15:11:16;14.70;99.90
32536;DHT22;18974;50.838;4.636;2024-03-06T15:13:42;14.70;99.90
32536;DHT22;18974;50.838;4.636;2024-03-06T15:16:07;14.60;99.90
32536;DHT22;18974;50.838;4.636;2024-03-06T15:18:36;14.60;99.90
32536;DHT22;18974;50.838;4.636;2024-03-06T15:21:02;14.50;99.90
32536;DHT22;18974;50.838;4.636;2024-03-06T15:23:28;14.60;99.90
32536;DHT22;18974;50.838;4.636;2024-03-06T15:25:54;14.50;99.90
32536;DHT22;18974;50.838;4.636;2024-03-06T15:28:21;14.50;99.90
32536;DHT22;18974;50.838;4.636;2024-03-06T15:30:47;14.60;99.90
32536;DHT22;18974;50.838;4.636;2024-03-06T15:33:13;14.60;99.90
32536;DHT22;18974;50.838;4.636;2024-03-06T15:35:39;14.80;99.90
32536;DHT22;18974;50.838;4.636;2024-03-06T15:38:05;14.80;99.90
32536;DHT22;18974;50.838;4.636;2024-03-06T15:40:30;14.90;99.90
32536;DHT22;18974;50.838;4.636;2024-03-06T15:42:56;14.80;99.90